createdAt,value
2018-11-10T00:03:47.358Z,12.00
2018-11-10T00:09:07.257Z,13.00
2018-11-10T00:14:25.755Z,13.30
2018-11-10T00:19:44.263Z,13.00
2018-11-10T00:25:02.825Z,14.20
2018-11-10T00:30:21.329Z,13.60
2018-11-10T00:35:39.875Z,13.30
2018-11-10T00:40:58.391Z,14.40
2018-11-10T00:46:16.936Z,13.60
2018-11-10T00:51:35.454Z,15.13
2018-11-10T00:56:53.998Z,13.37
2018-11-10T01:02:12.649Z,13.87
2018-11-10T01:07:31.255Z,13.03
2018-11-10T01:12:49.775Z,15.23
2018-11-10T01:18:08.743Z,14.30
2018-11-10T01:23:27.279Z,14.13
2018-11-10T01:28:45.837Z,13.93
2018-11-10T01:34:04.486Z,13.37
2018-11-10T01:39:22.993Z,13.53
2018-11-10T01:44:41.546Z,12.27
2018-11-10T01:50:00.035Z,12.17
2018-11-10T01:55:18.516Z,12.07
2018-11-10T02:00:37.042Z,10.73
2018-11-10T02:05:55.570Z,10.07
2018-11-10T02:11:14.081Z,9.87
2018-11-10T02:16:32.644Z,8.80
2018-11-10T02:21:51.192Z,9.50
2018-11-10T02:27:15.226Z,8.23
2018-11-10T02:32:33.712Z,7.20
2018-11-10T02:37:52.255Z,6.40
2018-11-10T02:43:11.378Z,7.27
2018-11-10T02:48:29.932Z,6.67
2018-11-10T02:53:48.525Z,5.97
2018-11-10T02:59:07.083Z,5.65
2018-11-10T03:04:25.740Z,5.77
2018-11-10T03:09:44.257Z,5.23
2018-11-10T03:15:03.006Z,5.40
2018-11-10T03:20:22.159Z,5.60
2018-11-10T03:25:40.776Z,5.10
2018-11-10T03:30:59.267Z,5.60
2018-11-10T03:36:17.795Z,5.97
2018-11-10T03:41:36.839Z,4.83
2018-11-10T03:46:55.364Z,4.73
2018-11-10T03:52:13.904Z,4.30
2018-11-10T03:57:32.391Z,4.87
2018-11-10T04:02:50.958Z,4.17
2018-11-10T04:08:09.465Z,4.23
2018-11-10T04:13:27.965Z,4.20
2018-11-10T04:18:47.160Z,3.90
2018-11-10T04:24:06.194Z,4.10
2018-11-10T04:29:24.906Z,4.03
2018-11-10T04:34:43.488Z,4.00
2018-11-10T04:40:02.095Z,3.50
2018-11-10T04:45:20.623Z,4.03
2018-11-10T04:50:39.106Z,3.90
2018-11-10T04:55:57.617Z,3.70
2018-11-10T05:01:16.188Z,4.23
2018-11-10T05:06:34.880Z,4.33
2018-11-10T05:11:53.516Z,4.07
2018-11-10T05:17:12.895Z,3.90
2018-11-10T05:22:31.393Z,4.03
2018-11-10T05:27:49.886Z,4.30
2018-11-10T05:33:08.398Z,4.83
2018-11-10T05:38:27.190Z,4.90
2018-11-10T05:43:45.669Z,4.83
2018-11-10T05:49:04.172Z,4.90
2018-11-10T05:54:22.783Z,4.63
2018-11-10T05:59:41.322Z,4.50
2018-11-10T06:04:59.839Z,5.20
2018-11-10T06:10:18.548Z,5.20
2018-11-10T06:15:36.979Z,4.83
2018-11-10T06:20:55.480Z,5.87
2018-11-10T06:26:14.070Z,6.90
2018-11-10T06:31:32.555Z,6.30
2018-11-10T06:36:51.076Z,6.97
2018-11-10T06:42:09.568Z,6.50
2018-11-10T06:47:28.022Z,7.53
2018-11-10T06:52:46.576Z,7.20
2018-11-10T06:58:05.687Z,6.73
2018-11-10T07:03:24.782Z,6.80
2018-11-10T07:08:43.266Z,7.00
2018-11-10T07:14:01.764Z,6.90
2018-11-10T07:19:20.287Z,7.20
2018-11-10T07:24:39.035Z,6.73
2018-11-10T07:29:57.547Z,7.33
2018-11-10T07:35:16.082Z,7.37
2018-11-10T07:40:34.584Z,6.30
2018-11-10T07:45:53.081Z,6.27
2018-11-10T07:51:11.761Z,6.70
2018-11-10T07:56:30.196Z,6.13
2018-11-10T08:01:49.819Z,5.60
2018-11-10T08:07:08.373Z,5.47
2018-11-10T08:12:26.943Z,5.30
2018-11-10T08:17:45.452Z,4.77
2018-11-10T08:23:03.955Z,5.62
2018-11-10T08:28:22.446Z,5.87
2018-11-10T08:33:41.062Z,4.67
2018-11-10T08:38:59.565Z,4.50
2018-11-10T08:44:18.688Z,5.27
2018-11-10T08:49:37.343Z,4.73
2018-11-10T08:54:55.858Z,4.70
2018-11-10T09:00:14.351Z,5.03
2018-11-10T09:05:33.000Z,4.90
2018-11-10T09:10:51.580Z,4.97
2018-11-10T09:16:10.086Z,5.00
2018-11-10T09:21:29.001Z,4.57
2018-11-10T09:26:47.379Z,4.03
2018-11-10T09:32:06.411Z,3.90
2018-11-10T09:37:24.906Z,4.20
2018-11-10T09:42:44.169Z,4.33
2018-11-10T09:48:02.535Z,4.47
2018-11-10T09:53:21.718Z,4.23
2018-11-10T09:58:40.402Z,4.50
2018-11-10T10:03:59.771Z,4.90
2018-11-10T10:14:34.467Z,4.07
2018-11-10T10:19:52.942Z,4.03
2018-11-10T10:25:13.117Z,4.45
2018-11-10T10:30:31.684Z,4.83
2018-11-10T10:35:50.204Z,4.20
2018-11-10T10:41:08.772Z,4.20
2018-11-10T10:46:27.319Z,4.27
2018-11-10T10:51:46.056Z,4.33
2018-11-10T10:57:05.284Z,5.47
2018-11-10T11:02:29.144Z,4.10
2018-11-10T11:07:47.916Z,4.10
2018-11-10T11:13:06.670Z,4.57
2018-11-10T11:18:25.175Z,4.53
2018-11-10T11:23:43.652Z,4.20
2018-11-10T11:29:02.239Z,4.80
2018-11-10T11:34:20.695Z,5.03
2018-11-10T11:39:39.211Z,5.20
2018-11-10T11:44:57.721Z,4.93
2018-11-10T11:50:16.638Z,5.10
2018-11-10T11:55:36.261Z,5.33
2018-11-10T12:00:54.722Z,3.43
2018-11-10T12:06:13.257Z,4.83
2018-11-10T12:11:31.792Z,5.63
2018-11-10T12:16:50.363Z,4.97
2018-11-10T12:22:08.968Z,5.23
2018-11-10T12:27:27.987Z,5.10
2018-11-10T12:32:47.036Z,5.70
2018-11-10T12:38:05.679Z,5.17
2018-11-10T12:43:24.261Z,5.53
2018-11-10T12:48:42.785Z,5.30
2018-11-10T12:54:01.370Z,6.23
2018-11-10T12:59:19.911Z,6.60
2018-11-10T13:04:38.399Z,7.90
2018-11-10T13:09:56.883Z,7.17
2018-11-10T13:15:15.862Z,7.53
2018-11-10T13:20:34.335Z,7.30
2018-11-10T13:25:52.851Z,7.10
2018-11-10T13:31:11.430Z,5.90
2018-11-10T13:36:29.853Z,5.70
2018-11-10T13:41:48.383Z,6.27
2018-11-10T13:47:08.569Z,5.33
2018-11-10T13:52:27.413Z,5.20
2018-11-10T13:57:45.767Z,4.87
2018-11-10T14:03:04.295Z,4.50
2018-11-10T14:08:22.793Z,4.93
2018-11-10T14:13:41.955Z,4.40
2018-11-10T14:19:00.498Z,4.93
2018-11-10T14:24:19.876Z,4.90
2018-11-10T14:29:38.612Z,5.10
2018-11-10T14:34:57.196Z,5.23
2018-11-10T14:40:17.021Z,4.55
2018-11-10T14:45:35.708Z,5.00
2018-11-10T14:50:54.383Z,4.90
2018-11-10T14:56:13.085Z,4.87
2018-11-10T15:01:31.836Z,4.90
2018-11-10T15:06:50.439Z,4.77
2018-11-10T15:12:09.024Z,4.53
2018-11-10T15:17:27.683Z,4.00
2018-11-10T15:22:46.384Z,4.20
2018-11-10T15:28:05.200Z,3.40
2018-11-10T15:33:23.807Z,3.50
2018-11-10T15:38:42.992Z,3.70
2018-11-10T15:44:01.493Z,3.30
2018-11-10T15:49:20.047Z,3.47
2018-11-10T15:54:39.394Z,3.37
2018-11-10T15:59:57.928Z,3.13
2018-11-10T16:05:16.715Z,2.95
2018-11-10T16:10:36.137Z,3.00
2018-11-10T16:15:54.670Z,2.83
2018-11-10T16:21:13.238Z,2.43
2018-11-10T16:26:31.776Z,2.50
2018-11-10T16:31:50.303Z,2.53
2018-11-10T16:37:09.693Z,2.50
2018-11-10T16:42:29.866Z,2.40
2018-11-10T16:47:48.446Z,2.83
2018-11-10T16:58:17.736Z,3.40
2018-11-10T17:03:36.388Z,3.17
2018-11-10T17:08:55.199Z,2.60
2018-11-10T17:14:13.776Z,2.80
2018-11-10T17:19:32.344Z,2.40
2018-11-10T17:24:50.920Z,2.47
2018-11-10T17:30:12.449Z,2.60
2018-11-10T17:35:30.896Z,2.43
2018-11-10T17:40:49.508Z,2.23
2018-11-10T17:46:08.509Z,2.10
2018-11-10T17:51:27.020Z,2.53
2018-11-10T17:56:45.615Z,2.20
2018-11-10T18:02:04.184Z,2.50
2018-11-10T18:07:23.193Z,2.20
2018-11-10T18:12:43.653Z,1.87
2018-11-10T18:18:03.955Z,2.10
2018-11-10T18:23:22.563Z,2.10
2018-11-10T18:28:41.115Z,2.00
2018-11-10T18:34:00.364Z,2.27
2018-11-10T18:39:19.096Z,1.80
2018-11-10T18:44:37.645Z,2.30
2018-11-10T18:49:56.212Z,2.30
2018-11-10T18:55:15.616Z,2.25
2018-11-10T19:00:34.215Z,2.60
2018-11-10T19:05:52.733Z,2.23
2018-11-10T19:11:11.278Z,3.73
2018-11-10T19:16:29.791Z,2.60
2018-11-10T19:21:48.332Z,3.10
2018-11-10T19:27:07.792Z,2.70
2018-11-10T19:32:26.532Z,3.00
2018-11-10T19:37:45.457Z,6.62
2018-11-10T19:43:04.048Z,3.47
2018-11-10T19:48:22.572Z,4.17
2018-11-10T19:53:42.095Z,4.60
2018-11-10T19:59:01.526Z,4.73
2018-11-10T20:04:20.101Z,4.77
2018-11-10T20:09:38.794Z,4.50
2018-11-10T20:14:57.413Z,4.80
2018-11-10T20:20:17.492Z,5.07
2018-11-10T20:25:36.028Z,4.90
2018-11-10T20:30:54.638Z,5.63
2018-11-10T20:36:13.183Z,5.03
2018-11-10T20:41:31.747Z,4.80
2018-11-10T20:46:50.376Z,4.67
2018-11-10T20:52:08.998Z,4.00
2018-11-10T20:57:27.744Z,5.40
2018-11-10T21:02:46.614Z,4.90
2018-11-10T21:08:05.319Z,5.13
2018-11-10T21:13:23.952Z,5.30
2018-11-10T21:18:42.904Z,5.73
2018-11-10T21:24:02.455Z,5.87
2018-11-10T21:29:21.129Z,6.67
2018-11-10T21:34:39.735Z,6.30
2018-11-10T21:39:58.267Z,5.63
2018-11-10T21:45:17.491Z,4.73
2018-11-10T21:50:36.061Z,5.20
2018-11-10T21:55:54.660Z,4.50
2018-11-10T22:01:13.240Z,4.30
2018-11-10T22:06:31.752Z,4.17
2018-11-10T22:11:50.331Z,3.77
2018-11-10T22:17:08.850Z,3.73
2018-11-10T22:22:27.369Z,3.20
2018-11-10T22:27:47.331Z,3.60
2018-11-10T22:33:05.950Z,3.13
2018-11-10T22:38:24.510Z,2.50
2018-11-10T22:43:44.284Z,2.70
2018-11-10T22:49:02.782Z,2.97
2018-11-10T22:54:21.303Z,2.87
2018-11-10T22:59:40.023Z,3.47
2018-11-10T23:04:58.619Z,3.50
2018-11-10T23:10:17.784Z,2.87
2018-11-10T23:15:36.271Z,2.50
2018-11-10T23:20:54.818Z,2.70
2018-11-10T23:26:14.364Z,2.07
2018-11-10T23:31:32.878Z,2.25
2018-11-10T23:36:52.264Z,2.30
2018-11-10T23:42:11.866Z,2.20
2018-11-10T23:47:30.452Z,2.00
2018-11-10T23:52:49.683Z,1.70
2018-11-10T23:58:08.215Z,1.90
